Time;durP1;ratioP1;P1;durP2;ratioP2;P2;SDS_P1;SDS_P2;PMS_P1;PMS_P2;Temp;Humidity;BMP_temperature;BMP_pressure;BME280_temperature;BME280_humidity;BME280_pressure;Samples;Min_cycle;Max_cycle;Signal;HPM_P1;HPM_P2
2023/06/11 00:01:17;;;;;;;;;;;;;;;14.65;57.26;102026.16;5029751;28;20254;-75
2023/06/11 00:03:46;;;;;;;;;;;;;;;14.44;57.57;102027.13;5029994;28;19923;-77
2023/06/11 00:06:20;;;;;;;;;;;;;;;14.46;58.43;102030.41;5017028;28;19920;-76
2023/06/11 00:08:46;;;;;;;;;;;;;;;14.34;59.01;102041.34;5047769;28;19931;-77
2023/06/11 00:11:12;;;;;;;;;;;;;;;14.19;59.33;102027.81;5030587;28;19924;-76
2023/06/11 00:13:37;;;;;;;;;;;;;;;13.97;59.86;102038.75;5033149;28;19948;-80
2023/06/11 00:16:03;;;;;;;;;;;;;;;13.96;60.09;102041.72;5016679;28;19924;-76
2023/06/11 00:18:29;;;;;;;;;;;;;;;14.07;59.62;102036.09;5030636;28;19921;-76
2023/06/11 00:20:58;;;;;;;;;;;;;;;13.92;60.73;102039.53;5011295;28;19920;-74
2023/06/11 00:23:24;;;;;;;;;;;;;;;13.82;60.55;102036.78;5034381;28;19925;-76
2023/06/11 00:25:52;;;;;;;;;;;;;;;13.67;61.27;102036.66;5020659;28;19927;-75
2023/06/11 00:28:18;;;;;;;;;;;;;;;13.71;61.54;102031.59;5033340;28;19924;-76
2023/06/11 00:30:44;;;;;;;;;;;;;;;13.80;61.42;102028.13;5033840;28;19956;-76
2023/06/11 00:33:10;;;;;;;;;;;;;;;13.74;61.53;102026.47;5014208;28;19955;-76
2023/06/11 00:35:36;;;;;;;;;;;;;;;13.79;61.23;102023.03;5016288;28;20290;-76
2023/06/11 00:38:02;;;;;;;;;;;;;;;13.81;61.11;102021.69;5016346;28;19917;-77
2023/06/11 00:40:27;;;;;;;;;;;;;;;13.78;60.76;102011.44;5017016;28;20289;-76
2023/06/11 00:42:54;;;;;;;;;;;;;;;14.00;59.87;102013.19;5049530;28;19921;-77
2023/06/11 00:45:22;;;;;;;;;;;;;;;13.86;60.87;102016.34;5029339;28;19986;-77
2023/06/11 00:47:48;;;;;;;;;;;;;;;13.78;60.78;102014.13;5018012;28;19921;-75
2023/06/11 00:50:15;;;;;;;;;;;;;;;13.70;61.84;102017.31;5016241;28;19939;-77
2023/06/11 00:52:41;;;;;;;;;;;;;;;13.77;61.58;102015.22;5014094;28;20004;-76
2023/06/11 00:55:07;;;;;;;;;;;;;;;13.68;62.12;102021.31;5014277;28;19924;-77
2023/06/11 00:57:35;;;;;;;;;;;;;;;13.67;61.45;102015.13;5029276;28;20742;-77
2023/06/11 01:00:01;;;;;;;;;;;;;;;13.64;61.77;102023.72;5020602;28;20020;-75
2023/06/11 01:02:35;;;;;;;;;;;;;;;13.53;62.21;102030.91;5032668;28;19927;-78
2023/06/11 01:05:03;;;;;;;;;;;;;;;13.51;62.43;102033.06;5034716;28;19921;-77
2023/06/11 01:07:32;;;;;;;;;;;;;;;13.37;62.93;102035.38;5029402;28;19974;-76
2023/06/11 01:10:01;;;;;;;;;;;;;;;13.26;63.82;102036.34;5037263;28;19920;-75
2023/06/11 01:12:28;;;;;;;;;;;;;;;13.17;63.83;102037.84;5047673;28;20449;-76
2023/06/11 01:14:54;;;;;;;;;;;;;;;13.03;65.74;102042.84;5013426;28;19920;-76
2023/06/11 01:17:24;;;;;;;;;;;;;;;12.93;66.27;102039.22;5032263;28;19920;-76
2023/06/11 01:19:58;;;;;;;;;;;;;;;12.81;65.37;102034.81;5012879;28;19956;-76
2023/06/11 01:22:33;;;;;;;;;;;;;;;12.73;66.72;102040.63;5038546;28;19925;-76
2023/06/11 01:25:15;;;;;;;;;;;;;;;12.96;65.94;102042.22;5030939;28;19924;-77
2023/06/11 01:27:56;;;;;;;;;;;;;;;12.94;66.02;102035.47;5029324;28;19920;-78
2023/06/11 01:30:23;;;;;;;;;;;;;;;12.80;67.02;102032.38;5046741;28;20113;-76
2023/06/11 01:32:53;;;;;;;;;;;;;;;12.94;65.40;102032.78;5031652;28;20019;-75
2023/06/11 01:35:22;;;;;;;;;;;;;;;12.88;65.97;102036.50;5022526;28;19928;-76
2023/06/11 01:37:55;;;;;;;;;;;;;;;12.91;65.17;102028.72;5012670;28;19925;-75
2023/06/11 01:40:23;;;;;;;;;;;;;;;12.80;65.65;102035.91;5010902;28;19921;-76
2023/06/11 01:42:53;;;;;;;;;;;;;;;12.77;65.86;102028.31;5029826;28;19921;-77
2023/06/11 01:45:21;;;;;;;;;;;;;;;12.68;66.30;102037.09;5015941;28;19959;-76
2023/06/11 01:47:51;;;;;;;;;;;;;;;12.78;65.37;102040.69;5043890;28;20061;-76
2023/06/11 01:50:18;;;;;;;;;;;;;;;12.72;65.95;102038.19;5009084;28;20007;-76
2023/06/11 01:52:44;;;;;;;;;;;;;;;12.62;66.35;102041.59;5047119;28;20031;-76
2023/06/11 01:55:10;;;;;;;;;;;;;;;12.53;66.33;102041.25;5029855;28;20433;-76
2023/06/11 01:57:36;;;;;;;;;;;;;;;12.58;67.00;102040.47;5030171;28;19921;-76
2023/06/11 02:00:06;;;;;;;;;;;;;;;12.61;66.76;102045.34;5033749;28;19928;-76
2023/06/11 02:02:42;;;;;;;;;;;;;;;12.46;66.98;102053.22;5045247;28;19970;-76
2023/06/11 02:05:09;;;;;;;;;;;;;;;12.35;67.98;102046.09;5012613;28;19925;-76
2023/06/11 02:07:35;;;;;;;;;;;;;;;12.26;68.58;102043.00;5046057;28;19928;-76
2023/06/11 02:10:04;;;;;;;;;;;;;;;12.21;68.53;102045.66;5045332;28;19924;-76
2023/06/11 02:12:30;;;;;;;;;;;;;;;12.23;68.65;102041.66;5048762;28;19921;-77
2023/06/11 02:14:55;;;;;;;;;;;;;;;12.11;68.97;102035.56;5011736;28;19921;-76
2023/06/11 02:17:21;;;;;;;;;;;;;;;12.03;69.05;102042.19;5026631;28;20382;-76
2023/06/11 02:19:47;;;;;;;;;;;;;;;11.96;69.36;102043.44;5028286;28;19921;-75
2023/06/11 02:22:15;;;;;;;;;;;;;;;11.88;69.25;102038.47;5031882;28;19966;-76
2023/06/11 02:24:40;;;;;;;;;;;;;;;11.91;69.58;102046.84;5030816;28;19932;-76
2023/06/11 02:27:06;;;;;;;;;;;;;;;12.01;69.43;102041.63;5048258;28;19916;-76
2023/06/11 02:29:33;;;;;;;;;;;;;;;12.01;69.04;102040.81;5030427;28;19921;-75
2023/06/11 02:31:58;;;;;;;;;;;;;;;12.02;69.18;102043.25;5028236;28;19970;-76
2023/06/11 02:34:24;;;;;;;;;;;;;;;11.94;69.86;102038.31;5029547;28;19921;-76
2023/06/11 02:36:50;;;;;;;;;;;;;;;12.02;70.03;102037.06;5009845;28;19928;-75
2023/06/11 02:39:16;;;;;;;;;;;;;;;11.96;69.66;102038.06;5030740;28;20027;-75
2023/06/11 02:41:41;;;;;;;;;;;;;;;11.84;71.05;102032.78;5026177;28;19927;-75
2023/06/11 02:44:07;;;;;;;;;;;;;;;11.90;69.76;102033.66;5047903;28;19932;-75
2023/06/11 02:46:37;;;;;;;;;;;;;;;11.99;69.50;102045.63;5032505;28;20351;-75
2023/06/11 02:49:02;;;;;;;;;;;;;;;11.93;70.07;102042.06;5030583;28;19920;-75
2023/06/11 02:51:28;;;;;;;;;;;;;;;11.89;69.93;102042.78;5032234;28;20389;-75
2023/06/11 02:53:54;;;;;;;;;;;;;;;11.89;69.88;102045.47;5011137;28;20532;-76
2023/06/11 02:56:19;;;;;;;;;;;;;;;11.85;69.83;102047.81;5025295;28;20426;-75
2023/06/11 02:58:47;;;;;;;;;;;;;;;11.79;70.53;102037.25;5049095;28;19925;-76
2023/06/11 03:01:12;;;;;;;;;;;;;;;11.71;70.63;102046.50;5050763;28;19933;-76
2023/06/11 03:03:38;;;;;;;;;;;;;;;11.73;70.81;102045.22;5015190;28;20074;-76
2023/06/11 03:06:03;;;;;;;;;;;;;;;11.77;70.48;102048.22;5033502;28;20396;-76
2023/06/11 03:08:30;;;;;;;;;;;;;;;11.83;70.35;102047.25;5031848;28;19979;-75
2023/06/11 03:10:56;;;;;;;;;;;;;;;11.76;70.87;102060.81;5028272;28;19964;-77
2023/06/11 03:13:21;;;;;;;;;;;;;;;11.71;71.56;102058.06;5031693;28;19983;-75
2023/06/11 03:15:50;;;;;;;;;;;;;;;11.79;71.49;102058.72;5014574;28;20352;-75
2023/06/11 03:18:22;;;;;;;;;;;;;;;11.85;70.96;102071.16;5028454;28;19920;-76
2023/06/11 03:20:48;;;;;;;;;;;;;;;11.86;71.50;102068.25;5044560;28;19931;-77
2023/06/11 03:23:14;;;;;;;;;;;;;;;11.88;71.30;102066.13;5013327;28;19920;-76
2023/06/11 03:25:40;;;;;;;;;;;;;;;11.88;71.61;102051.91;5034730;28;19921;-77
2023/06/11 03:28:05;;;;;;;;;;;;;;;11.94;71.38;102067.03;5037501;28;20034;-76
2023/06/11 03:30:31;;;;;;;;;;;;;;;12.03;71.41;102060.97;5034585;28;20003;-77
2023/06/11 03:32:58;;;;;;;;;;;;;;;12.07;71.17;102066.69;5034140;28;19928;-75
2023/06/11 03:35:23;;;;;;;;;;;;;;;12.16;70.98;102059.81;5050695;28;20279;-76
2023/06/11 03:37:50;;;;;;;;;;;;;;;12.23;70.46;102065.81;5013315;28;19931;-76
2023/06/11 03:40:19;;;;;;;;;;;;;;;12.33;70.26;102064.31;5035615;28;20439;-76
2023/06/11 03:42:47;;;;;;;;;;;;;;;12.37;70.23;102062.78;5031263;28;20380;-77
2023/06/11 03:45:13;;;;;;;;;;;;;;;12.45;70.60;102056.97;5034156;28;20393;-76
2023/06/11 03:47:39;;;;;;;;;;;;;;;12.47;70.10;102055.66;5044252;28;19982;-76
2023/06/11 03:50:05;;;;;;;;;;;;;;;12.56;70.03;102056.03;5032023;28;19952;-75
2023/06/11 03:52:30;;;;;;;;;;;;;;;12.72;69.16;102057.81;5029015;28;19948;-75
2023/06/11 03:54:56;;;;;;;;;;;;;;;12.75;69.41;102057.34;5014898;28;21048;-78
2023/06/11 03:57:22;;;;;;;;;;;;;;;12.77;69.63;102054.38;5032177;28;19921;-78
2023/06/11 03:59:49;;;;;;;;;;;;;;;12.71;70.25;102048.13;5013005;28;19999;-74
2023/06/11 04:02:14;;;;;;;;;;;;;;;12.71;69.74;102050.81;5030833;28;20015;-76
2023/06/11 04:04:42;;;;;;;;;;;;;;;12.82;69.32;102051.75;5016185;28;20021;-76
2023/06/11 04:07:08;;;;;;;;;;;;;;;12.81;69.41;102055.53;5031548;28;19990;-76
2023/06/11 04:09:34;;;;;;;;;;;;;;;12.78;69.87;102056.00;5030509;28;20358;-75
2023/06/11 04:11:59;;;;;;;;;;;;;;;12.77;70.29;102057.88;5030574;28;19964;-75
2023/06/11 04:14:25;;;;;;;;;;;;;;;12.85;70.27;102057.44;5014298;28;19921;-76
2023/06/11 04:16:51;;;;;;;;;;;;;;;12.94;69.47;102056.97;5044754;28;20345;-75
2023/06/11 04:19:18;;;;;;;;;;;;;;;12.90;70.49;102059.38;5051453;28;20005;-74
2023/06/11 04:21:47;;;;;;;;;;;;;;;13.02;69.82;102056.53;5036927;28;19916;-76
2023/06/11 04:24:13;;;;;;;;;;;;;;;13.08;69.35;102053.66;5032801;28;19943;-76
2023/06/11 04:26:40;;;;;;;;;;;;;;;13.04;69.63;102051.72;5045494;28;20296;-76
2023/06/11 04:29:08;;;;;;;;;;;;;;;13.06;70.97;102057.66;5016765;28;19925;-77
2023/06/11 04:31:34;;;;;;;;;;;;;;;13.05;70.19;102061.41;5012388;28;19928;-76
2023/06/11 04:34:03;;;;;;;;;;;;;;;13.06;69.74;102058.44;5014351;28;20476;-75
2023/06/11 04:36:31;;;;;;;;;;;;;;;13.10;70.45;102061.47;5011533;28;19982;-76
2023/06/11 04:39:01;;;;;;;;;;;;;;;13.16;69.95;102056.94;5011906;28;19917;-76
2023/06/11 04:41:29;;;;;;;;;;;;;;;13.15;69.79;102050.75;5032778;28;19924;-77
2023/06/11 04:43:55;;;;;;;;;;;;;;;13.14;71.20;102054.53;5018380;28;19959;-77
2023/06/11 04:46:22;;;;;;;;;;;;;;;13.13;71.83;102045.59;5050489;28;19920;-76
2023/06/11 04:48:51;;;;;;;;;;;;;;;13.21;70.81;102054.31;5034432;28;19982;-75
2023/06/11 04:51:17;;;;;;;;;;;;;;;13.28;70.08;102055.75;5032172;28;19928;-75
2023/06/11 04:53:45;;;;;;;;;;;;;;;13.36;69.97;102057.97;5013745;28;19927;-76
2023/06/11 04:56:12;;;;;;;;;;;;;;;13.45;68.94;102052.13;5030204;28;19924;-75
2023/06/11 04:58:39;;;;;;;;;;;;;;;13.49;69.75;102053.25;5016966;28;19927;-76
2023/06/11 05:01:05;;;;;;;;;;;;;;;13.50;69.80;102042.22;5029693;28;20398;-75
2023/06/11 05:03:36;;;;;;;;;;;;;;;13.55;68.95;102049.53;5016897;28;19971;-76
2023/06/11 05:06:03;;;;;;;;;;;;;;;13.49;69.94;102045.97;5010688;28;19925;-75
2023/06/11 05:08:32;;;;;;;;;;;;;;;13.46;70.72;102051.84;5027871;28;20377;-76
2023/06/11 05:10:59;;;;;;;;;;;;;;;13.48;70.22;102043.50;5012820;28;19927;-76
2023/06/11 05:13:27;;;;;;;;;;;;;;;13.62;69.76;102053.63;5026982;28;19935;-75
2023/06/11 05:16:01;;;;;;;;;;;;;;;13.76;69.40;102056.66;5016876;28;19916;-78
2023/06/11 05:18:26;;;;;;;;;;;;;;;13.81;70.08;102045.91;5015419;28;19920;-76
2023/06/11 05:20:54;;;;;;;;;;;;;;;13.88;69.88;102046.50;5011511;28;19943;-76
2023/06/11 05:23:28;;;;;;;;;;;;;;;14.06;69.27;102045.25;5016191;28;20406;-76
2023/06/11 05:26:01;;;;;;;;;;;;;;;14.38;67.66;102047.84;5035700;28;20326;-76
2023/06/11 05:28:27;;;;;;;;;;;;;;;14.66;68.16;102037.75;5052227;28;19941;-77
2023/06/11 05:30:53;;;;;;;;;;;;;;;14.84;65.37;102036.44;5015676;28;20026;-77
2023/06/11 05:33:20;;;;;;;;;;;;;;;15.14;65.78;102044.56;5025032;28;20644;-76
2023/06/11 05:35:51;;;;;;;;;;;;;;;15.39;63.27;102041.09;5031211;28;19921;-74
2023/06/11 05:38:17;;;;;;;;;;;;;;;15.62;63.17;102041.63;5032763;28;20369;-76
2023/06/11 05:40:42;;;;;;;;;;;;;;;15.81;61.70;102048.09;5015065;28;19917;-76
2023/06/11 05:43:08;;;;;;;;;;;;;;;16.17;60.75;102038.00;5012633;28;19932;-75
2023/06/11 05:45:45;;;;;;;;;;;;;;;16.45;59.41;102041.94;5015334;28;19970;-76
2023/06/11 05:48:11;;;;;;;;;;;;;;;16.73;58.31;102036.97;5026527;28;19925;-75
2023/06/11 05:50:37;;;;;;;;;;;;;;;16.86;57.74;102041.75;5045041;28;19920;-76
2023/06/11 05:53:03;;;;;;;;;;;;;;;17.11;57.24;102043.50;5031248;28;19940;-77
2023/06/11 05:55:29;;;;;;;;;;;;;;;17.24;56.92;102048.25;5030085;28;19927;-77
2023/06/11 05:57:54;;;;;;;;;;;;;;;17.39;56.03;102050.03;5037501;28;19916;-76
2023/06/11 06:00:20;;;;;;;;;;;;;;;17.44;55.68;102052.72;5033908;28;19928;-75
2023/06/11 06:02:50;;;;;;;;;;;;;;;17.62;54.75;102052.00;5017667;28;21973;-75
2023/06/11 06:05:23;;;;;;;;;;;;;;;17.68;54.03;102053.59;5028966;28;19917;-75
2023/06/11 06:07:49;;;;;;;;;;;;;;;17.84;53.61;102056.16;5030741;28;19928;-76
2023/06/11 06:10:15;;;;;;;;;;;;;;;17.90;54.32;102061.25;5016052;28;19917;-76
2023/06/11 06:12:41;;;;;;;;;;;;;;;18.05;53.71;102054.84;5031070;28;19925;-75
2023/06/11 06:15:08;;;;;;;;;;;;;;;17.90;53.79;102055.84;5031524;28;19975;-75
2023/06/11 06:17:35;;;;;;;;;;;;;;;18.14;53.33;102058.53;5031151;28;19917;-74
2023/06/11 06:20:01;;;;;;;;;;;;;;;18.08;53.79;102059.69;5036395;28;19927;-75
2023/06/11 06:22:26;;;;;;;;;;;;;;;18.19;53.48;102058.50;5031634;28;19928;-76
2023/06/11 06:24:53;;;;;;;;;;;;;;;18.25;52.95;102046.50;5033465;28;19994;-77
2023/06/11 06:27:19;;;;;;;;;;;;;;;18.44;52.41;102060.09;5031872;28;19928;-75
2023/06/11 06:29:45;;;;;;;;;;;;;;;18.53;51.82;102063.78;5019872;28;19917;-75
2023/06/11 06:32:10;;;;;;;;;;;;;;;18.68;51.84;102057.34;5050916;28;19951;-74
2023/06/11 06:34:36;;;;;;;;;;;;;;;18.76;51.15;102055.91;5052647;28;20395;-74
2023/06/11 06:37:02;;;;;;;;;;;;;;;18.75;51.44;102057.81;5017764;28;20567;-74
2023/06/11 06:39:28;;;;;;;;;;;;;;;18.94;51.14;102049.66;5050506;28;19924;-75
2023/06/11 06:41:56;;;;;;;;;;;;;;;19.22;50.80;102063.38;5047622;28;20305;-74
2023/06/11 06:44:32;;;;;;;;;;;;;;;19.26;50.09;102057.06;5035798;28;19933;-75
2023/06/11 06:46:58;;;;;;;;;;;;;;;19.26;50.41;102057.06;5050176;28;19953;-76
2023/06/11 06:49:24;;;;;;;;;;;;;;;19.59;50.15;102057.09;5033227;28;19931;-77
2023/06/11 06:51:49;;;;;;;;;;;;;;;19.92;50.48;102049.69;5033599;28;19997;-77
2023/06/11 06:54:16;;;;;;;;;;;;;;;19.99;49.63;102057.47;5013043;28;20340;-77
2023/06/11 06:56:42;;;;;;;;;;;;;;;20.00;48.50;102056.34;5048153;28;19921;-75
2023/06/11 06:59:08;;;;;;;;;;;;;;;19.83;48.32;102060.44;5032709;28;19931;-75
2023/06/11 07:01:35;;;;;;;;;;;;;;;20.03;48.06;102061.97;5031375;28;19928;-75
2023/06/11 07:04:01;;;;;;;;;;;;;;;20.06;48.00;102057.88;5016005;28;19916;-75
2023/06/11 07:06:27;;;;;;;;;;;;;;;20.34;47.85;102045.84;5032581;28;20011;-76
2023/06/11 07:08:53;;;;;;;;;;;;;;;20.58;47.78;102048.34;5039416;28;20040;-75
2023/06/11 07:11:21;;;;;;;;;;;;;;;20.59;47.18;102060.06;5019612;28;20456;-76
2023/06/11 07:13:47;;;;;;;;;;;;;;;20.90;46.63;102058.28;5051795;28;19928;-75
2023/06/11 07:16:14;;;;;;;;;;;;;;;20.78;45.89;102066.16;5029222;28;19917;-76
2023/06/11 07:18:44;;;;;;;;;;;;;;;20.78;45.91;102055.28;5052234;28;19920;-74
2023/06/11 07:21:10;;;;;;;;;;;;;;;20.83;46.28;102066.06;5046409;28;19963;-75
2023/06/11 07:23:35;;;;;;;;;;;;;;;21.09;46.85;102051.84;5031162;28;19925;-79
2023/06/11 07:26:02;;;;;;;;;;;;;;;21.46;44.98;102056.13;5017099;28;20435;-76
2023/06/11 07:28:28;;;;;;;;;;;;;;;21.81;45.66;102059.84;5019857;28;19929;-78
2023/06/11 07:30:56;;;;;;;;;;;;;;;21.63;45.53;102064.44;5029740;28;19924;-77
2023/06/11 07:33:21;;;;;;;;;;;;;;;21.97;45.43;102063.78;5011378;28;19921;-75
2023/06/11 07:35:49;;;;;;;;;;;;;;;21.82;44.31;102061.47;5036168;28;19920;-77
2023/06/11 07:38:16;;;;;;;;;;;;;;;22.04;44.01;102064.13;5033489;28;19921;-75
2023/06/11 07:40:42;;;;;;;;;;;;;;;22.10;42.91;102061.31;5019183;28;19925;-75
2023/06/11 07:43:07;;;;;;;;;;;;;;;22.37;43.34;102065.72;5030673;28;19948;-77
2023/06/11 07:45:34;;;;;;;;;;;;;;;22.25;43.18;102058.13;5030933;28;19920;-75
2023/06/11 07:48:00;;;;;;;;;;;;;;;22.31;43.83;102054.94;5032326;28;19924;-76
2023/06/11 07:50:26;;;;;;;;;;;;;;;22.51;41.64;102053.53;5031915;28;19996;-75
2023/06/11 07:52:52;;;;;;;;;;;;;;;22.46;42.80;102055.63;5035302;28;20464;-74
2023/06/11 07:55:22;;;;;;;;;;;;;;;22.83;42.49;102063.22;5033536;28;19928;-76
2023/06/11 07:57:47;;;;;;;;;;;;;;;22.76;41.89;102056.59;5051540;28;20003;-76
2023/06/11 08:00:15;;;;;;;;;;;;;;;22.28;42.11;102057.50;5018984;28;19952;-78
2023/06/11 08:02:41;;;;;;;;;;;;;;;22.87;41.73;102052.47;5051688;28;19924;-76
2023/06/11 08:05:07;;;;;;;;;;;;;;;23.21;41.31;102053.59;5049224;28;19931;-76
2023/06/11 08:07:32;;;;;;;;;;;;;;;23.07;40.94;102057.28;5044581;28;19991;-76
2023/06/11 08:09:58;;;;;;;;;;;;;;;23.02;40.23;102051.19;5033658;28;19928;-76
2023/06/11 08:12:23;;;;;;;;;;;;;;;23.47;40.29;102048.88;5016218;28;19968;-75
2023/06/11 08:14:48;;;;;;;;;;;;;;;23.54;40.12;102051.91;5045832;28;20277;-75
2023/06/11 08:17:14;;;;;;;;;;;;;;;23.73;40.54;102056.22;5040834;28;19928;-79
2023/06/11 08:19:39;;;;;;;;;;;;;;;24.19;40.37;102058.94;5032900;28;19928;-77
2023/06/11 08:22:05;;;;;;;;;;;;;;;23.77;39.44;102040.75;5050196;28;19921;-78
2023/06/11 08:24:31;;;;;;;;;;;;;;;23.54;39.18;102038.25;5046012;28;19925;-77
2023/06/11 08:26:57;;;;;;;;;;;;;;;23.65;41.25;102053.19;5049277;28;20007;-78
2023/06/11 08:29:26;;;;;;;;;;;;;;;23.73;39.96;102045.28;5041434;28;19921;-76
2023/06/11 08:31:52;;;;;;;;;;;;;;;23.99;39.17;102046.00;5031973;28;19983;-74
2023/06/11 08:34:20;;;;;;;;;;;;;;;24.09;39.00;102047.53;5029493;28;19952;-78
2023/06/11 08:36:45;;;;;;;;;;;;;;;24.45;37.30;102052.50;5047291;28;19920;-77
2023/06/11 08:39:10;;;;;;;;;;;;;;;24.28;36.55;102053.41;5029958;28;19920;-77
2023/06/11 08:41:38;;;;;;;;;;;;;;;24.61;37.41;102052.75;5035090;28;20012;-77
2023/06/11 08:44:04;;;;;;;;;;;;;;;24.56;36.80;102053.72;5031400;28;20289;-75
2023/06/11 08:46:33;;;;;;;;;;;;;;;24.96;37.12;102040.38;5028206;28;19920;-77
2023/06/11 08:49:04;;;;;;;;;;;;;;;24.36;37.82;102043.56;5050706;28;19939;-75
2023/06/11 08:51:33;;;;;;;;;;;;;;;24.71;37.24;102047.66;5035208;28;19929;-79
2023/06/11 08:53:59;;;;;;;;;;;;;;;25.13;36.83;102046.84;5034122;28;19924;-76
2023/06/11 08:56:26;;;;;;;;;;;;;;;25.62;35.71;102036.81;5014721;28;20389;-74
2023/06/11 08:59:19;;;;;;;;;;;;;;;25.55;37.63;102042.06;5050360;28;19920;-76
2023/06/11 09:01:50;;;;;;;;;;;;;;;25.29;36.18;102045.88;5038331;28;19921;-75
2023/06/11 09:04:20;;;;;;;;;;;;;;;25.47;36.04;102040.19;5031023;28;20394;-75
2023/06/11 09:07:04;;;;;;;;;;;;;;;25.39;34.37;102043.84;5012751;28;20254;-76
2023/06/11 09:09:29;;;;;;;;;;;;;;;25.42;35.01;102045.91;5031902;28;19920;-75
2023/06/11 09:11:55;;;;;;;;;;;;;;;25.08;35.63;102045.13;5032055;28;19925;-74
2023/06/11 09:14:21;;;;;;;;;;;;;;;24.97;36.21;102039.22;5028912;28;20290;-75
2023/06/11 09:16:47;;;;;;;;;;;;;;;25.74;36.60;102039.63;5013676;28;20452;-75
2023/06/11 09:19:21;;;;;;;;;;;;;;;25.74;35.92;102034.13;5031950;28;19943;-77
2023/06/11 09:21:51;;;;;;;;;;;;;;;26.03;36.30;102037.78;5034530;28;19931;-77
2023/06/11 09:24:18;;;;;;;;;;;;;;;25.52;35.64;102037.25;5048177;28;19941;-77
2023/06/11 09:26:53;;;;;;;;;;;;;;;26.11;35.24;102029.44;5064068;28;20271;-78
2023/06/11 09:29:19;;;;;;;;;;;;;;;26.44;35.21;102046.94;5014294;28;19928;-79
2023/06/11 09:31:45;;;;;;;;;;;;;;;26.50;34.87;102037.31;5017516;28;19925;-79
2023/06/11 09:34:12;;;;;;;;;;;;;;;27.07;34.93;102028.75;5033222;28;19932;-76
2023/06/11 09:36:38;;;;;;;;;;;;;;;26.80;34.18;102040.53;5050802;28;19921;-77
2023/06/11 09:39:03;;;;;;;;;;;;;;;26.59;33.97;102040.72;5035246;28;19921;-77
2023/06/11 09:41:32;;;;;;;;;;;;;;;26.13;33.83;102034.56;5032690;28;19923;-77
2023/06/11 09:43:59;;;;;;;;;;;;;;;26.55;33.88;102042.53;5052591;28;19928;-77
2023/06/11 09:46:25;;;;;;;;;;;;;;;26.77;34.00;102042.03;5029983;28;19921;-77
2023/06/11 09:48:51;;;;;;;;;;;;;;;27.02;32.88;102037.22;5047452;28;19975;-77
2023/06/11 09:51:21;;;;;;;;;;;;;;;27.13;33.52;102037.56;5037415;28;19972;-77
2023/06/11 09:53:49;;;;;;;;;;;;;;;27.08;32.97;102033.09;5035391;28;19948;-76
2023/06/11 09:56:16;;;;;;;;;;;;;;;27.08;32.97;102040.56;5050832;28;19920;-80
2023/06/11 09:58:42;;;;;;;;;;;;;;;26.66;32.02;102036.22;5035939;28;19921;-80
2023/06/11 10:01:07;;;;;;;;;;;;;;;26.75;31.79;102046.25;5019243;28;19921;-80
2023/06/11 10:03:33;;;;;;;;;;;;;;;26.78;32.33;102038.13;5022611;28;20332;-78
2023/06/11 10:05:59;;;;;;;;;;;;;;;27.00;32.56;102049.72;5054879;28;19932;-76
2023/06/11 10:08:28;;;;;;;;;;;;;;;27.09;31.35;102040.19;5017538;28;19921;-77
2023/06/11 10:10:56;;;;;;;;;;;;;;;27.17;30.23;102039.28;5034040;28;20011;-77
2023/06/11 10:13:28;;;;;;;;;;;;;;;26.72;30.60;102039.53;5034745;28;19950;-76
2023/06/11 10:15:53;;;;;;;;;;;;;;;26.81;31.11;102029.19;5018527;28;19920;-79
2023/06/11 10:18:23;;;;;;;;;;;;;;;27.72;30.34;102023.03;5032956;28;19921;-77
2023/06/11 10:20:58;;;;;;;;;;;;;;;27.32;30.58;102032.19;5016626;28;19928;-79
2023/06/11 10:23:33;;;;;;;;;;;;;;;27.14;29.52;102031.69;5031789;28;19924;-78
2023/06/11 10:25:59;;;;;;;;;;;;;;;27.30;30.15;102022.69;5033374;28;19925;-77
2023/06/11 10:28:40;;;;;;;;;;;;;;;27.52;29.14;102021.31;5019830;28;19940;-77
2023/06/11 10:31:06;;;;;;;;;;;;;;;27.58;28.17;102015.19;5016853;28;19925;-74
2023/06/11 10:33:44;;;;;;;;;;;;;;;28.07;28.73;102022.25;5036979;28;19927;-77
2023/06/11 10:36:23;;;;;;;;;;;;;;;28.00;27.77;102023.69;5035563;28;20000;-76
2023/06/11 10:38:49;;;;;;;;;;;;;;;27.94;27.40;102022.38;5040509;28;19931;-75
2023/06/11 10:41:15;;;;;;;;;;;;;;;28.31;27.21;102016.53;5034557;28;19988;-75
2023/06/11 10:43:45;;;;;;;;;;;;;;;27.81;26.67;102012.63;5053486;28;19984;-79
2023/06/11 10:46:17;;;;;;;;;;;;;;;27.95;26.25;102018.44;5034395;28;20015;-77
2023/06/11 10:48:50;;;;;;;;;;;;;;;28.45;27.20;102010.53;5048792;28;19963;-77
2023/06/11 10:51:16;;;;;;;;;;;;;;;28.28;26.34;102014.47;5050077;28;19927;-77
2023/06/11 10:53:41;;;;;;;;;;;;;;;28.18;26.49;102012.28;5050920;28;19920;-77
2023/06/11 10:56:13;;;;;;;;;;;;;;;28.07;27.50;102019.50;5033969;28;19935;-77
2023/06/11 10:58:38;;;;;;;;;;;;;;;28.12;27.35;102005.47;5033452;28;19931;-76
2023/06/11 11:01:06;;;;;;;;;;;;;;;28.46;26.56;102012.94;5034511;28;19921;-77
2023/06/11 11:03:33;;;;;;;;;;;;;;;28.40;26.18;102013.59;5029045;28;19921;-77
2023/06/11 11:05:59;;;;;;;;;;;;;;;28.34;26.35;102007.56;5016588;28;19935;-76
2023/06/11 11:08:24;;;;;;;;;;;;;;;28.33;26.67;102005.19;5049655;28;19924;-77
2023/06/11 11:10:54;;;;;;;;;;;;;;;29.11;26.07;102006.75;5050681;28;19916;-77
2023/06/11 11:13:20;;;;;;;;;;;;;;;28.13;26.63;102007.06;5029725;28;19924;-76
2023/06/11 11:15:45;;;;;;;;;;;;;;;28.89;26.68;102002.78;5030681;28;20068;-79
2023/06/11 11:18:11;;;;;;;;;;;;;;;29.10;25.95;101991.38;5051991;28;19921;-76
2023/06/11 11:20:36;;;;;;;;;;;;;;;29.36;26.08;102001.69;5052217;28;19920;-80
2023/06/11 11:23:02;;;;;;;;;;;;;;;29.09;26.28;101995.31;5051816;28;19917;-77
2023/06/11 11:25:29;;;;;;;;;;;;;;;29.13;28.65;101992.59;5018160;28;19924;-77
2023/06/11 11:27:58;;;;;;;;;;;;;;;29.27;26.18;101987.38;5019363;28;19925;-76
2023/06/11 11:30:28;;;;;;;;;;;;;;;28.97;24.78;101984.44;5034211;28;19921;-76
2023/06/11 11:32:54;;;;;;;;;;;;;;;29.20;25.16;101982.50;5030718;28;20504;-75
2023/06/11 11:35:20;;;;;;;;;;;;;;;29.08;26.08;101975.22;5035900;28;19925;-76
2023/06/11 11:37:46;;;;;;;;;;;;;;;28.88;25.75;101981.09;5050443;28;20331;-75
2023/06/11 11:40:12;;;;;;;;;;;;;;;29.36;24.41;101996.19;5030559;28;20013;-77
2023/06/11 11:42:48;;;;;;;;;;;;;;;29.50;24.01;101990.91;5034642;28;19972;-74
2023/06/11 11:45:14;;;;;;;;;;;;;;;29.16;24.41;101978.09;5015973;28;20333;-75
2023/06/11 11:47:44;;;;;;;;;;;;;;;29.42;25.87;101969.09;5031125;28;19921;-76
2023/06/11 11:50:21;;;;;;;;;;;;;;;30.30;24.78;101966.09;5031778;28;19928;-77
2023/06/11 11:52:58;;;;;;;;;;;;;;;29.79;23.61;101961.78;5049709;28;20002;-78
2023/06/11 11:55:23;;;;;;;;;;;;;;;30.12;23.24;101965.84;5033262;28;20014;-81
2023/06/11 11:57:50;;;;;;;;;;;;;;;29.56;23.60;101964.63;5046112;28;19953;-78
2023/06/11 12:00:23;;;;;;;;;;;;;;;29.91;22.54;101972.63;5015919;28;19927;-75
2023/06/11 12:02:49;;;;;;;;;;;;;;;30.09;23.02;101967.41;5034360;28;19995;-76
2023/06/11 12:05:14;;;;;;;;;;;;;;;30.34;22.80;101966.91;5045513;28;19924;-76
2023/06/11 12:07:50;;;;;;;;;;;;;;;30.59;22.91;101968.03;5047407;28;19927;-76
2023/06/11 12:10:15;;;;;;;;;;;;;;;30.65;22.64;101963.75;5033563;28;19920;-74
2023/06/11 12:12:41;;;;;;;;;;;;;;;31.07;22.85;101959.84;5052599;28;19931;-77
2023/06/11 12:15:07;;;;;;;;;;;;;;;29.87;23.70;101970.97;5048697;28;19916;-77
2023/06/11 12:17:32;;;;;;;;;;;;;;;30.17;22.33;101962.75;5034723;28;20023;-73
2023/06/11 12:19:58;;;;;;;;;;;;;;;30.38;23.50;101963.03;5048883;28;19921;-77
2023/06/11 12:22:24;;;;;;;;;;;;;;;30.60;22.80;101953.03;5049988;28;20566;-75
2023/06/11 12:24:50;;;;;;;;;;;;;;;30.57;22.73;101959.31;5033497;28;19920;-77
2023/06/11 12:27:18;;;;;;;;;;;;;;;30.14;22.68;101947.75;5021260;28;19979;-76
2023/06/11 12:29:43;;;;;;;;;;;;;;;30.37;21.86;101950.41;5033640;28;19939;-75
2023/06/11 12:32:13;;;;;;;;;;;;;;;31.13;24.19;101952.81;5049483;28;21193;-76
2023/06/11 12:34:38;;;;;;;;;;;;;;;31.10;22.14;101952.78;5018185;28;20522;-77
2023/06/11 12:37:04;;;;;;;;;;;;;;;31.08;21.92;101944.84;5057669;28;19924;-78